Grand Marais, MN

10:17 AM CDT on September 05, 2015 (GMT -0500)
SundewTech | | Change Station
CLOSE
Current Station
Personal Weather Station
Location: Grand Marais, MN
Elevation: 676 ft
Nearby Weather Stations

Elev 676 ft 47.75 °N, 90.34 °W | Updated 48 seconds ago

Overcast
Overcast
68.4 °F
Feels Like 68.4 °F
N
0.0
Wind Variable Wind from NE
Gusts 1.2 mph

Today
High -- | Low -- °F
--% Chance of Precip.
Yesterday
High -- | Low -- °F
Precip. -- in
6:24 AM 7:34 PM
Waning Gibbous, 48% visible
Pressure 30.04 in
Visibility 0.2 miles
Clouds Overcast 100 ft
Dew Point 62 °F
Humidity 80%
Rainfall 0.04 in
Snow Depth Not available.
UV 1 out of 12
Pollen 2.80 out of 12
Air Quality Not available.
Flu Activity Not available.
METAR KCKC 051453Z AUTO 00000KT 1/4SM FG OVC001 18/17 A3004 RMK AO2
Pressure 30.04 in
Visibility 0.2 miles
Clouds Overcast 100 ft
Dew Point 62 °F
Humidity 80%
Rainfall 0.04 in
Snow Depth Not available.
UV 1 out of 12
Pollen 2.80 out of 12
Air Quality Not available.
Flu Activity Not available.
METAR KCKC 051453Z AUTO 00000KT 1/4SM FG OVC001 18/17 A3004 RMK AO2

10-Day Weather Forecast

×

Almanac

Astronomy

Sep. 05, 2015 Rise Set
Actual Time
Civil Twilight
Nautical Twilight
Astronomical Twilight
Moon
Length of Visible Light
Length of Day
Tomorrow will be .
, % of the Moon is Illuminated

Today's Extremes

State Highs State Lows

Community

WunderPhotos

Upload Photos

1,852,480 photos uploaded!

WunderBlogs® & News

Nearby

Air Quality

  Air Quality AQ Index Pollutant
Not available.

Snow Depth

Station Depth Elevation

Earthquake Activity

City Distance Mag. Time & Date
Minimum magnitude displayed is 2.5.

Coastal Water Temperatures

Place Temperature

Stations

Nearby Weather Stations

Station Location Temp. Windchill Dew Point Humidity Wind Precip. Elev Updated Type